sensor_id;sensor_type;location;lat;lon;timestamp;pressure;altitude;pressure_sealevel;temperature;humidity
20160;BME280;50187;50.492;12.134;2024-03-17T00:01:33;98262.44;;;20.49;36.96
20160;BME280;50187;50.492;12.134;2024-03-17T00:04:17;98265.16;;;20.49;36.89
20160;BME280;50187;50.492;12.134;2024-03-17T00:07:02;98263.44;;;20.48;36.71
20160;BME280;50187;50.492;12.134;2024-03-17T00:09:47;98266.97;;;20.49;36.78
20160;BME280;50187;50.492;12.134;2024-03-17T00:12:33;98261.72;;;20.47;36.93
20160;BME280;50187;50.492;12.134;2024-03-17T00:15:17;98269.84;;;20.47;36.67
20160;BME280;50187;50.492;12.134;2024-03-17T00:18:02;98270.72;;;20.48;36.86
20160;BME280;50187;50.492;12.134;2024-03-17T00:20:46;98267.13;;;20.47;36.62
20160;BME280;50187;50.492;12.134;2024-03-17T00:23:31;98269.97;;;20.46;36.72
20160;BME280;50187;50.492;12.134;2024-03-17T00:26:16;98270.72;;;20.48;36.96
20160;BME280;50187;50.492;12.134;2024-03-17T00:29:00;98264.72;;;20.44;36.72
20160;BME280;50187;50.492;12.134;2024-03-17T00:31:47;98262.75;;;20.46;36.79
20160;BME280;50187;50.492;12.134;2024-03-17T00:34:31;98261.03;;;20.45;36.83
20160;BME280;50187;50.492;12.134;2024-03-17T00:37:16;98269.00;;;20.47;36.77
20160;BME280;50187;50.492;12.134;2024-03-17T00:40:01;98273.41;;;20.48;36.82
20160;BME280;50187;50.492;12.134;2024-03-17T00:42:46;98263.75;;;20.45;36.88
20160;BME280;50187;50.492;12.134;2024-03-17T00:45:31;98260.31;;;20.43;36.58
20160;BME280;50187;50.492;12.134;2024-03-17T00:48:15;98267.59;;;20.42;36.53
20160;BME280;50187;50.492;12.134;2024-03-17T00:51:00;98266.44;;;20.45;36.50
20160;BME280;50187;50.492;12.134;2024-03-17T00:53:44;98264.72;;;20.44;36.76
20160;BME280;50187;50.492;12.134;2024-03-17T00:56:28;98264.72;;;20.44;36.47
20160;BME280;50187;50.492;12.134;2024-03-17T00:59:13;98264.88;;;20.42;36.76
20160;BME280;50187;50.492;12.134;2024-03-17T01:01:57;98264.88;;;20.42;36.61
20160;BME280;50187;50.492;12.134;2024-03-17T01:04:45;98273.00;;;20.42;36.51
20160;BME280;50187;50.492;12.134;2024-03-17T01:07:29;98267.59;;;20.42;36.67
20160;BME280;50187;50.492;12.134;2024-03-17T01:10:14;98265.03;;;20.41;36.75
20160;BME280;50187;50.492;12.134;2024-03-17T01:12:58;98276.53;;;20.43;36.40
20160;BME280;50187;50.492;12.134;2024-03-17T01:15:43;98277.56;;;20.42;36.73
20160;BME280;50187;50.492;12.134;2024-03-17T01:18:27;98275.84;;;20.41;36.45
20160;BME280;50187;50.492;12.134;2024-03-17T01:21:12;98261.91;;;20.36;36.59
20160;BME280;50187;50.492;12.134;2024-03-17T01:23:56;98276.81;;;20.40;36.64
20160;BME280;50187;50.492;12.134;2024-03-17T01:26:42;98277.56;;;20.42;36.35
20160;BME280;50187;50.492;12.134;2024-03-17T01:29:27;98262.31;;;20.41;36.55
20160;BME280;50187;50.492;12.134;2024-03-17T01:32:11;98266.91;;;20.40;36.66
20160;BME280;50187;50.492;12.134;2024-03-17T01:34:55;98264.31;;;20.39;nan
20160;BME280;50187;50.492;12.134;2024-03-17T01:37:40;98266.16;;;20.38;36.39
20160;BME280;50187;50.492;12.134;2024-03-17T01:40:24;98267.00;;;20.39;36.58
20160;BME280;50187;50.492;12.134;2024-03-17T01:43:10;98265.34;;;20.38;36.56
20160;BME280;50187;50.492;12.134;2024-03-17T01:45:56;98269.72;;;20.39;36.25
20160;BME280;50187;50.492;12.134;2024-03-17T01:48:43;98254.53;;;20.38;36.45
20160;BME280;50187;50.492;12.134;2024-03-17T01:51:28;98258.22;;;20.37;36.50
20160;BME280;50187;50.492;12.134;2024-03-17T01:54:13;98264.47;;;20.37;36.38
20160;BME280;50187;50.492;12.134;2024-03-17T01:56:58;98253.66;;;20.37;36.14
20160;BME280;50187;50.492;12.134;2024-03-17T01:59:43;98256.50;;;20.36;36.37
20160;BME280;50187;50.492;12.134;2024-03-17T02:02:27;98257.38;;;20.36;36.30
20160;BME280;50187;50.492;12.134;2024-03-17T02:05:12;98270.88;;;20.36;36.73
20160;BME280;50187;50.492;12.134;2024-03-17T02:07:56;98261.91;;;20.36;36.32
20160;BME280;50187;50.492;12.134;2024-03-17T02:10:40;98254.66;;;20.36;36.51
20160;BME280;50187;50.492;12.134;2024-03-17T02:13:25;98254.81;;;20.35;36.22
20160;BME280;50187;50.492;12.134;2024-03-17T02:16:09;98252.97;;;20.35;36.32
20160;BME280;50187;50.492;12.134;2024-03-17T02:18:54;98260.22;;;20.35;36.37
20160;BME280;50187;50.492;12.134;2024-03-17T02:21:40;98252.13;;;20.35;36.33
20160;BME280;50187;50.492;12.134;2024-03-17T02:24:24;98251.41;;;20.33;36.36
20160;BME280;50187;50.492;12.134;2024-03-17T02:27:09;98244.28;;;20.32;36.42
20160;BME280;50187;50.492;12.134;2024-03-17T02:29:55;98256.81;;;20.33;36.29
20160;BME280;50187;50.492;12.134;2024-03-17T02:32:39;98250.41;;;20.34;36.40
20160;BME280;50187;50.492;12.134;2024-03-17T02:35:25;98260.22;;;20.35;36.40
20160;BME280;50187;50.492;12.134;2024-03-17T02:38:15;98253.41;;;20.31;36.32
20160;BME280;50187;50.492;12.134;2024-03-17T02:41:20;98247.13;;;20.30;36.50
20160;BME280;50187;50.492;12.134;2024-03-17T02:44:05;98240.16;;;20.28;36.39
20160;BME280;50187;50.492;12.134;2024-03-17T02:46:50;98244.44;;;20.30;36.17
20160;BME280;50187;50.492;12.134;2024-03-17T02:49:35;98255.09;;;20.32;36.06
20160;BME280;50187;50.492;12.134;2024-03-17T02:52:27;98246.28;;;20.30;36.27
20160;BME280;50187;50.492;12.134;2024-03-17T02:55:12;98256.25;;;20.29;36.20
20160;BME280;50187;50.492;12.134;2024-03-17T02:57:57;98253.69;;;20.28;36.14
20160;BME280;50187;50.492;12.134;2024-03-17T03:00:42;98245.47;;;20.29;36.42
20160;BME280;50187;50.492;12.134;2024-03-17T03:03:26;98251.69;;;20.30;36.22
20160;BME280;50187;50.492;12.134;2024-03-17T03:06:11;98240.88;;;20.30;36.36
20160;BME280;50187;50.492;12.134;2024-03-17T03:08:57;98240.88;;;20.30;36.16
20160;BME280;50187;50.492;12.134;2024-03-17T03:11:41;98228.81;;;20.24;36.11
20160;BME280;50187;50.492;12.134;2024-03-17T03:14:26;98233.09;;;20.27;36.28
20160;BME280;50187;50.492;12.134;2024-03-17T03:17:10;98233.22;;;20.25;36.32
20160;BME280;50187;50.492;12.134;2024-03-17T03:19:54;98235.78;;;20.27;36.34
20160;BME280;50187;50.492;12.134;2024-03-17T03:22:40;98228.53;;;20.27;36.17
20160;BME280;50187;50.492;12.134;2024-03-17T03:25:24;98232.38;;;20.24;36.32
20160;BME280;50187;50.492;12.134;2024-03-17T03:28:09;98240.47;;;20.24;36.13
20160;BME280;50187;50.492;12.134;2024-03-17T03:30:54;98230.53;;;20.25;36.08
20160;BME280;50187;50.492;12.134;2024-03-17T03:33:39;98228.81;;;20.24;36.43
20160;BME280;50187;50.492;12.134;2024-03-17T03:36:24;98225.97;;;20.25;36.34
20160;BME280;50187;50.492;12.134;2024-03-17T03:39:09;98230.53;;;20.25;36.04
20160;BME280;50187;50.492;12.134;2024-03-17T03:41:55;98230.53;;;20.25;36.32
20160;BME280;50187;50.492;12.134;2024-03-17T03:44:40;98229.81;;;20.23;36.08
20160;BME280;50187;50.492;12.134;2024-03-17T03:47:24;98241.34;;;20.25;36.30
20160;BME280;50187;50.492;12.134;2024-03-17T03:50:14;98225.28;;;20.23;36.06
20160;BME280;50187;50.492;12.134;2024-03-17T03:52:59;98229.66;;;20.24;36.23
20160;BME280;50187;50.492;12.134;2024-03-17T03:55:44;98231.53;;;20.24;36.02
20160;BME280;50187;50.492;12.134;2024-03-17T03:58:28;98232.66;;;20.21;36.04
20160;BME280;50187;50.492;12.134;2024-03-17T04:01:15;98238.06;;;20.21;36.21
20160;BME280;50187;50.492;12.134;2024-03-17T04:04:05;98233.66;;;20.20;36.24
20160;BME280;50187;50.492;12.134;2024-03-17T04:06:50;98231.69;;;20.22;36.00
20160;BME280;50187;50.492;12.134;2024-03-17T04:09:34;98238.78;;;20.23;36.19
20160;BME280;50187;50.492;12.134;2024-03-17T04:12:19;98238.06;;;20.21;35.99
20160;BME280;50187;50.492;12.134;2024-03-17T04:15:04;98239.06;;;20.20;36.42
20160;BME280;50187;50.492;12.134;2024-03-17T04:17:50;98241.75;;;20.20;36.23
20160;BME280;50187;50.492;12.134;2024-03-17T04:20:34;98243.47;;;20.21;36.28
20160;BME280;50187;50.492;12.134;2024-03-17T04:23:23;98246.16;;;20.21;36.24
20160;BME280;50187;50.492;12.134;2024-03-17T04:26:07;98242.63;;;20.21;36.04
20160;BME280;50187;50.492;12.134;2024-03-17T04:28:52;98234.94;;;20.16;35.89
20160;BME280;50187;50.492;12.134;2024-03-17T04:31:36;98240.06;;;20.19;36.22
20160;BME280;50187;50.492;12.134;2024-03-17T04:34:22;98232.09;;;20.18;36.25
20160;BME280;50187;50.492;12.134;2024-03-17T04:37:06;98232.97;;;20.18;36.07
20160;BME280;50187;50.492;12.134;2024-03-17T04:39:51;98242.78;;;20.19;35.97
20160;BME280;50187;50.492;12.134;2024-03-17T04:42:36;98241.91;;;20.19;36.25
20160;BME280;50187;50.492;12.134;2024-03-17T04:45:22;98233.53;;;20.12;36.29
20160;BME280;50187;50.492;12.134;2024-03-17T04:48:07;98259.97;;;20.18;36.17
20160;BME280;50187;50.492;12.134;2024-03-17T04:50:51;98248.19;;;20.19;36.21
20160;BME280;50187;50.492;12.134;2024-03-17T04:53:36;98248.28;;;20.18;36.10
20160;BME280;50187;50.492;12.134;2024-03-17T04:56:21;98254.72;;;20.17;36.12
20160;BME280;50187;50.492;12.134;2024-03-17T04:59:05;98246.91;;;20.14;36.24
20160;BME280;50187;50.492;12.134;2024-03-17T05:01:50;98259.09;;;20.18;36.17
20160;BME280;50187;50.492;12.134;2024-03-17T05:04:34;98259.53;;;20.23;36.20
20160;BME280;50187;50.492;12.134;2024-03-17T05:07:18;98264.09;;;20.22;36.00
20160;BME280;50187;50.492;12.134;2024-03-17T05:10:04;98262.94;;;20.25;36.05
20160;BME280;50187;50.492;12.134;2024-03-17T05:12:49;98267.91;;;20.30;36.08
20160;BME280;50187;50.492;12.134;2024-03-17T05:15:36;98264.06;;;20.32;35.95
20160;BME280;50187;50.492;12.134;2024-03-17T05:18:22;98269.47;;;20.32;36.09
20160;BME280;50187;50.492;12.134;2024-03-17T05:21:09;98274.88;;;20.32;36.09
20160;BME280;50187;50.492;12.134;2024-03-17T05:23:53;98267.31;;;20.36;35.99
20160;BME280;50187;50.492;12.134;2024-03-17T05:26:38;98270.59;;;20.39;35.70
20160;BME280;50187;50.492;12.134;2024-03-17T05:29:23;98274.44;;;20.37;36.04
20160;BME280;50187;50.492;12.134;2024-03-17T05:32:07;98263.63;;;20.37;35.92
20160;BME280;50187;50.492;12.134;2024-03-17T05:34:52;98279.69;;;20.38;35.96
20160;BME280;50187;50.492;12.134;2024-03-17T05:37:36;98273.00;;;20.42;35.66
20160;BME280;50187;50.492;12.134;2024-03-17T05:40:21;98276.69;;;20.41;35.93
20160;BME280;50187;50.492;12.134;2024-03-17T05:43:05;98270.13;;;20.44;35.58
20160;BME280;50187;50.492;12.134;2024-03-17T05:45:51;98273.56;;;20.46;35.55
20160;BME280;50187;50.492;12.134;2024-03-17T05:48:37;98277.25;;;20.45;35.84
20160;BME280;50187;50.492;12.134;2024-03-17T05:51:22;98264.72;;;20.44;35.53
20160;BME280;50187;50.492;12.134;2024-03-17T05:54:09;98286.03;;;20.47;35.49
20160;BME280;50187;50.492;12.134;2024-03-17T05:56:54;98278.50;;;20.51;35.46
20160;BME280;50187;50.492;12.134;2024-03-17T05:59:38;98278.66;;;20.49;35.78
20160;BME280;50187;50.492;12.134;2024-03-17T06:02:23;98305.69;;;20.49;35.59
20160;BME280;50187;50.492;12.134;2024-03-17T06:05:07;98292.19;;;20.49;35.52
20160;BME280;50187;50.492;12.134;2024-03-17T06:07:54;98294.44;;;20.54;35.74
20160;BME280;50187;50.492;12.134;2024-03-17T06:10:46;98289.16;;;20.52;35.68
20160;BME280;50187;50.492;12.134;2024-03-17T06:13:31;98302.38;;;20.55;35.48
20160;BME280;50187;50.492;12.134;2024-03-17T06:16:15;98307.63;;;20.57;35.76
20160;BME280;50187;50.492;12.134;2024-03-17T06:19:00;98300.41;;;20.57;35.46
20160;BME280;50187;50.492;12.134;2024-03-17T06:21:44;98301.53;;;20.55;35.45
20160;BME280;50187;50.492;12.134;2024-03-17T06:24:29;98309.66;;;20.55;35.82
20160;BME280;50187;50.492;12.134;2024-03-17T06:27:13;98305.81;;;20.57;35.70
20160;BME280;50187;50.492;12.134;2024-03-17T06:29:58;98314.75;;;20.58;35.55
20160;BME280;50187;50.492;12.134;2024-03-17T06:32:43;98314.75;;;20.58;35.69
20160;BME280;50187;50.492;12.134;2024-03-17T06:35:29;98304.09;;;20.56;35.31
20160;BME280;50187;50.492;12.134;2024-03-17T06:38:15;98316.19;;;20.62;35.80
20160;BME280;50187;50.492;12.134;2024-03-17T06:40:59;98313.63;;;20.61;35.67
20160;BME280;50187;50.492;12.134;2024-03-17T06:43:44;98321.88;;;20.59;35.49
20160;BME280;50187;50.492;12.134;2024-03-17T06:46:28;98322.41;;;20.63;35.49
20160;BME280;50187;50.492;12.134;2024-03-17T06:49:13;98326.69;;;20.65;35.60
20160;BME280;50187;50.492;12.134;2024-03-17T06:51:58;98322.41;;;20.63;35.61
20160;BME280;50187;50.492;12.134;2024-03-17T06:54:42;98316.19;;;20.62;35.55
20160;BME280;50187;50.492;12.134;2024-03-17T06:57:27;98323.13;;;20.65;35.68
20160;BME280;50187;50.492;12.134;2024-03-17T07:00:12;98323.72;;;20.68;35.57
20160;BME280;50187;50.492;12.134;2024-03-17T07:03:01;98318.56;;;20.65;35.48
20160;BME280;50187;50.492;12.134;2024-03-17T07:05:52;98319.34;;;20.67;35.50
20160;BME280;50187;50.492;12.134;2024-03-17T07:08:37;98320.16;;;20.68;35.66
20160;BME280;50187;50.492;12.134;2024-03-17T07:11:22;98326.41;;;20.68;35.44
20160;BME280;50187;50.492;12.134;2024-03-17T07:14:08;98326.53;;;20.67;35.59
20160;BME280;50187;50.492;12.134;2024-03-17T07:16:53;98326.41;;;20.68;35.59
20160;BME280;50187;50.492;12.134;2024-03-17T07:19:37;98335.09;;;20.72;35.59
20160;BME280;50187;50.492;12.134;2024-03-17T07:22:22;98324.44;;;20.70;35.61
20160;BME280;50187;50.492;12.134;2024-03-17T07:25:07;98323.56;;;20.70;35.76
20160;BME280;50187;50.492;12.134;2024-03-17T07:27:51;98317.88;;;20.73;35.53
20160;BME280;50187;50.492;12.134;2024-03-17T07:30:36;98317.88;;;20.73;35.73
20160;BME280;50187;50.492;12.134;2024-03-17T07:33:21;98317.88;;;20.73;35.53
20160;BME280;50187;50.492;12.134;2024-03-17T07:36:06;98322.41;;;20.72;35.54
20160;BME280;50187;50.492;12.134;2024-03-17T07:38:52;98321.28;;;20.75;35.76
20160;BME280;50187;50.492;12.134;2024-03-17T07:41:36;98314.88;;;20.76;35.58
20160;BME280;50187;50.492;12.134;2024-03-17T07:44:21;98319.41;;;20.75;35.56
20160;BME280;50187;50.492;12.134;2024-03-17T07:47:06;98311.16;;;20.77;35.84
20160;BME280;50187;50.492;12.134;2024-03-17T07:49:51;98319.97;;;20.79;35.84
20160;BME280;50187;50.492;12.134;2024-03-17T07:52:35;98318.28;;;20.78;35.88
20160;BME280;50187;50.492;12.134;2024-03-17T07:55:19;98317.59;;;20.76;35.58
20160;BME280;50187;50.492;12.134;2024-03-17T07:58:04;98336.06;;;20.81;35.63
20160;BME280;50187;50.492;12.134;2024-03-17T08:00:49;98320.56;;;20.83;35.84
20160;BME280;50187;50.492;12.134;2024-03-17T08:03:34;98312.44;;;20.83;35.79
20160;BME280;50187;50.492;12.134;2024-03-17T08:06:19;98316.13;;;20.82;35.60
20160;BME280;50187;50.492;12.134;2024-03-17T08:09:03;98311.41;;;20.84;35.84
20160;BME280;50187;50.492;12.134;2024-03-17T08:14:33;98307.56;;;20.86;35.92
20160;BME280;50187;50.492;12.134;2024-03-17T08:17:18;98306.59;;;20.87;35.63
20160;BME280;50187;50.492;12.134;2024-03-17T08:20:03;98301.16;;;20.87;35.93
20160;BME280;50187;50.492;12.134;2024-03-17T08:22:47;98294.78;;;20.88;35.59
20160;BME280;50187;50.492;12.134;2024-03-17T08:25:33;98287.34;;;20.90;35.88
20160;BME280;50187;50.492;12.134;2024-03-17T08:28:18;98294.47;;;20.91;35.86
20160;BME280;50187;50.492;12.134;2024-03-17T08:31:03;98285.31;;;20.92;35.71
20160;BME280;50187;50.492;12.134;2024-03-17T08:33:48;98284.91;;;20.97;35.89
20160;BME280;50187;50.492;12.134;2024-03-17T08:36:33;98279.44;;;21.07;35.72
20160;BME280;50187;50.492;12.134;2024-03-17T08:39:17;98272.94;;;21.18;35.72
20160;BME280;50187;50.492;12.134;2024-03-17T08:42:01;98278.34;;;21.18;35.61
20160;BME280;50187;50.492;12.134;2024-03-17T08:44:46;98276.84;;;21.15;35.42
20160;BME280;50187;50.492;12.134;2024-03-17T08:47:30;98270.97;;;21.20;35.38
20160;BME280;50187;50.492;12.134;2024-03-17T08:50:15;98264.47;;;21.13;35.33
20160;BME280;50187;50.492;12.134;2024-03-17T08:52:59;98267.78;;;21.24;35.47
20160;BME280;50187;50.492;12.134;2024-03-17T08:55:44;98263.31;;;21.33;35.39
20160;BME280;50187;50.492;12.134;2024-03-17T08:58:28;98267.41;;;21.37;35.64
20160;BME280;50187;50.492;12.134;2024-03-17T09:01:14;98263.25;;;21.43;35.26
20160;BME280;50187;50.492;12.134;2024-03-17T09:03:59;98267.97;;;21.41;35.43
20160;BME280;50187;50.492;12.134;2024-03-17T09:06:45;98267.34;;;21.47;35.42
20160;BME280;50187;50.492;12.134;2024-03-17T09:09:30;98270.59;;;21.51;35.39
20160;BME280;50187;50.492;12.134;2024-03-17T09:12:14;98274.91;;;21.53;35.35
20160;BME280;50187;50.492;12.134;2024-03-17T09:14:59;98270.84;;;21.57;34.97
20160;BME280;50187;50.492;12.134;2024-03-17T09:17:43;98268.47;;;21.54;35.19
20160;BME280;50187;50.492;12.134;2024-03-17T09:20:28;98260.63;;;21.51;35.25
20160;BME280;50187;50.492;12.134;2024-03-17T09:23:12;98258.69;;;21.43;35.14
20160;BME280;50187;50.492;12.134;2024-03-17T09:25:59;98261.25;;;21.45;35.16
20160;BME280;50187;50.492;12.134;2024-03-17T09:28:44;98260.22;;;21.46;35.28
20160;BME280;50187;50.492;12.134;2024-03-17T09:31:29;98263.63;;;21.48;35.31
20160;BME280;50187;50.492;12.134;2024-03-17T09:34:14;98251.66;;;21.51;35.16
20160;BME280;50187;50.492;12.134;2024-03-17T09:36:59;98249.34;;;21.56;35.23
20160;BME280;50187;50.492;12.134;2024-03-17T09:39:47;98253.13;;;21.63;34.97
20160;BME280;50187;50.492;12.134;2024-03-17T09:42:32;98241.16;;;21.66;35.32
20160;BME280;50187;50.492;12.134;2024-03-17T09:45:18;98247.94;;;21.70;35.28
20160;BME280;50187;50.492;12.134;2024-03-17T09:48:03;98242.09;;;21.74;35.15
20160;BME280;50187;50.492;12.134;2024-03-17T09:50:50;98239.22;;;21.76;34.94
20160;BME280;50187;50.492;12.134;2024-03-17T09:53:38;98237.75;;;21.82;34.80
20160;BME280;50187;50.492;12.134;2024-03-17T09:56:22;98236.56;;;21.84;34.97
20160;BME280;50187;50.492;12.134;2024-03-17T09:59:07;98243.53;;;21.87;34.74
20160;BME280;50187;50.492;12.134;2024-03-17T10:01:51;98238.66;;;21.90;34.94
20160;BME280;50187;50.492;12.134;2024-03-17T10:04:36;98244.75;;;21.92;34.75
20160;BME280;50187;50.492;12.134;2024-03-17T10:07:37;98237.19;;;21.96;34.63
20160;BME280;50187;50.492;12.134;2024-03-17T10:10:21;98241.59;;;21.97;34.82
20160;BME280;50187;50.492;12.134;2024-03-17T10:13:11;98234.97;;;22.00;34.43
20160;BME280;50187;50.492;12.134;2024-03-17T10:15:56;98241.13;;;22.02;34.31
20160;BME280;50187;50.492;12.134;2024-03-17T10:18:40;98232.66;;;22.05;34.37
20160;BME280;50187;50.492;12.134;2024-03-17T10:21:26;98242.34;;;22.07;34.38
20160;BME280;50187;50.492;12.134;2024-03-17T10:24:21;98226.91;;;22.08;34.58
20160;BME280;50187;50.492;12.134;2024-03-17T10:27:10;98228.63;;;22.09;34.42
20160;BME280;50187;50.492;12.134;2024-03-17T10:29:56;98225.91;;;22.09;34.49
20160;BME280;50187;50.492;12.134;2024-03-17T10:32:40;98237.44;;;22.11;34.39
20160;BME280;50187;50.492;12.134;2024-03-17T10:35:27;98224.03;;;22.09;34.53
20160;BME280;50187;50.492;12.134;2024-03-17T10:38:12;98237.13;;;22.14;34.28
20160;BME280;50187;50.492;12.134;2024-03-17T10:40:57;98223.59;;;22.14;34.30
20160;BME280;50187;50.492;12.134;2024-03-17T10:43:41;98218.84;;;22.16;34.14
20160;BME280;50187;50.492;12.134;2024-03-17T10:46:26;98219.16;;;22.13;34.38
20160;BME280;50187;50.492;12.134;2024-03-17T10:49:12;98217.63;;;22.10;34.27
20160;BME280;50187;50.492;12.134;2024-03-17T10:52:02;98207.28;;;22.06;34.52
20160;BME280;50187;50.492;12.134;2024-03-17T10:54:53;98211.00;;;22.05;34.54
20160;BME280;50187;50.492;12.134;2024-03-17T10:57:45;98202.19;;;22.03;34.66
20160;BME280;50187;50.492;12.134;2024-03-17T11:00:34;98206.72;;;22.02;34.49
20160;BME280;50187;50.492;12.134;2024-03-17T11:03:19;98197.94;;;22.00;34.32
20160;BME280;50187;50.492;12.134;2024-03-17T11:06:04;98206.06;;;22.00;34.68
20160;BME280;50187;50.492;12.134;2024-03-17T11:08:50;98187.94;;;22.01;34.65
20160;BME280;50187;50.492;12.134;2024-03-17T11:11:36;98191.34;;;22.03;34.34
20160;BME280;50187;50.492;12.134;2024-03-17T11:14:21;98197.59;;;22.03;34.66
20160;BME280;50187;50.492;12.134;2024-03-17T11:17:19;98192.19;;;22.03;34.45
20160;BME280;50187;50.492;12.134;2024-03-17T11:20:21;98194.72;;;22.05;34.36
20160;BME280;50187;50.492;12.134;2024-03-17T11:23:08;98189.16;;;22.06;34.33
20160;BME280;50187;50.492;12.134;2024-03-17T11:25:56;98181.91;;;22.07;34.28
20160;BME280;50187;50.492;12.134;2024-03-17T11:31:42;98182.41;;;22.10;34.23
20160;BME280;50187;50.492;12.134;2024-03-17T11:34:29;98178.69;;;22.11;34.31
20160;BME280;50187;50.492;12.134;2024-03-17T11:37:40;98176.81;;;22.12;34.03
20160;BME280;50187;50.492;12.134;2024-03-17T11:40:25;98178.53;;;22.13;34.23
20160;BME280;50187;50.492;12.134;2024-03-17T11:43:16;98183.25;;;22.11;34.12
20160;BME280;50187;50.492;12.134;2024-03-17T11:46:01;98182.41;;;22.10;33.99
20160;BME280;50187;50.492;12.134;2024-03-17T11:48:45;98176.31;;;22.08;34.14
20160;BME280;50187;50.492;12.134;2024-03-17T11:51:29;98169.03;;;22.09;34.07
20160;BME280;50187;50.492;12.134;2024-03-17T11:54:15;98164.44;;;22.09;34.21
20160;BME280;50187;50.492;12.134;2024-03-17T11:57:04;98167.16;;;22.09;34.42
20160;BME280;50187;50.492;12.134;2024-03-17T11:59:50;98160.06;;;22.08;34.19
20160;BME280;50187;50.492;12.134;2024-03-17T12:02:35;98163.59;;;22.09;34.26
20160;BME280;50187;50.492;12.134;2024-03-17T12:05:19;98160.06;;;22.08;34.24
20160;BME280;50187;50.492;12.134;2024-03-17T12:08:20;98155.63;;;22.07;34.32
20160;BME280;50187;50.492;12.134;2024-03-17T12:11:16;98151.38;;;22.05;34.35
20160;BME280;50187;50.492;12.134;2024-03-17T12:14:12;98148.50;;;22.06;34.16
20160;BME280;50187;50.492;12.134;2024-03-17T12:17:01;98147.69;;;22.06;34.15
20160;BME280;50187;50.492;12.134;2024-03-17T12:19:45;98138.53;;;22.07;34.13
20160;BME280;50187;50.492;12.134;2024-03-17T12:22:31;98140.38;;;22.06;34.24
20160;BME280;50187;50.492;12.134;2024-03-17T12:25:21;98135.84;;;22.07;34.23
20160;BME280;50187;50.492;12.134;2024-03-17T12:28:15;98126.00;;;22.06;34.41
20160;BME280;50187;50.492;12.134;2024-03-17T12:31:01;98131.59;;;22.04;34.31
20160;BME280;50187;50.492;12.134;2024-03-17T12:33:45;98123.78;;;22.01;34.34
20160;BME280;50187;50.492;12.134;2024-03-17T12:36:30;98130.38;;;21.99;34.43
20160;BME280;50187;50.492;12.134;2024-03-17T12:39:19;98127.94;;;21.95;34.65
20160;BME280;50187;50.492;12.134;2024-03-17T12:44:53;98128.28;;;21.92;34.40
20160;BME280;50187;50.492;12.134;2024-03-17T12:47:38;98120.16;;;21.92;34.39
20160;BME280;50187;50.492;12.134;2024-03-17T12:50:26;98116.78;;;21.90;34.57
20160;BME280;50187;50.492;12.134;2024-03-17T12:53:15;98114.22;;;21.89;34.68
20160;BME280;50187;50.492;12.134;2024-03-17T12:56:01;98113.34;;;21.88;34.55
20160;BME280;50187;50.492;12.134;2024-03-17T12:59:09;98109.97;;;21.86;34.95
20160;BME280;50187;50.492;12.134;2024-03-17T13:02:13;98110.31;;;21.83;34.54
20160;BME280;50187;50.492;12.134;2024-03-17T13:05:14;98096.06;;;21.81;34.68
20160;BME280;50187;50.492;12.134;2024-03-17T13:07:59;98093.50;;;21.79;34.63
20160;BME280;50187;50.492;12.134;2024-03-17T13:10:44;98093.66;;;21.78;34.77
20160;BME280;50187;50.492;12.134;2024-03-17T13:13:29;98101.13;;;21.76;34.91
20160;BME280;50187;50.492;12.134;2024-03-17T13:16:13;98089.59;;;21.74;34.91
20160;BME280;50187;50.492;12.134;2024-03-17T13:18:57;98082.63;;;21.71;35.07
20160;BME280;50187;50.492;12.134;2024-03-17T13:21:42;98079.41;;;21.68;35.36
20160;BME280;50187;50.492;12.134;2024-03-17T13:24:26;98077.03;;;21.65;35.39
20160;BME280;50187;50.492;12.134;2024-03-17T13:27:11;98079.19;;;21.61;35.10
20160;BME280;50187;50.492;12.134;2024-03-17T13:29:55;98076.66;;;21.59;34.92
20160;BME280;50187;50.492;12.134;2024-03-17T13:32:40;98072.56;;;21.55;35.17
20160;BME280;50187;50.492;12.134;2024-03-17T13:35:30;98071.72;;;21.55;35.28
20160;BME280;50187;50.492;12.134;2024-03-17T13:38:14;98061.47;;;21.49;35.48
20160;BME280;50187;50.492;12.134;2024-03-17T13:40:59;98063.50;;;21.47;35.50
20160;BME280;50187;50.492;12.134;2024-03-17T13:43:43;98056.53;;;21.44;35.93
20160;BME280;50187;50.492;12.134;2024-03-17T13:46:28;98059.41;;;21.42;35.81
20160;BME280;50187;50.492;12.134;2024-03-17T13:49:13;98054.16;;;21.41;35.39
20160;BME280;50187;50.492;12.134;2024-03-17T13:51:58;98050.06;;;21.37;35.54
20160;BME280;50187;50.492;12.134;2024-03-17T13:54:42;98056.66;;;21.34;35.14
20160;BME280;50187;50.492;12.134;2024-03-17T13:57:27;98059.34;;;21.34;35.54
20160;BME280;50187;50.492;12.134;2024-03-17T14:00:12;98058.50;;;21.34;35.59
20160;BME280;50187;50.492;12.134;2024-03-17T14:03:00;98060.66;;;21.30;35.63
20160;BME280;50187;50.492;12.134;2024-03-17T14:05:44;98054.59;;;21.28;35.98
20160;BME280;50187;50.492;12.134;2024-03-17T14:08:29;98048.63;;;21.24;36.00
20160;BME280;50187;50.492;12.134;2024-03-17T14:11:13;98050.66;;;21.22;35.96
20160;BME280;50187;50.492;12.134;2024-03-17T14:13:58;98043.16;;;21.16;35.61
20160;BME280;50187;50.492;12.134;2024-03-17T14:16:42;98053.13;;;21.16;35.75
20160;BME280;50187;50.492;12.134;2024-03-17T14:19:28;98037.38;;;21.11;35.99
20160;BME280;50187;50.492;12.134;2024-03-17T14:22:13;98034.84;;;21.09;36.08
20160;BME280;50187;50.492;12.134;2024-03-17T14:24:58;98035.84;;;21.08;35.77
20160;BME280;50187;50.492;12.134;2024-03-17T14:27:43;98029.50;;;21.00;35.91
20160;BME280;50187;50.492;12.134;2024-03-17T14:30:27;98036.59;;;21.01;36.04
20160;BME280;50187;50.492;12.134;2024-03-17T14:33:11;98027.09;;;20.97;35.72
20160;BME280;50187;50.492;12.134;2024-03-17T14:35:59;98021.00;;;20.95;35.72